Ely, MN (55731)

7:58 AM CDT on April 28, 2017 (GMT -0500)
Ely near the school | | Change Station

Elev 1483 ft 47.90 °N, 91.86 °W | Updated 58 seconds ago

Overcast
Overcast
28.3 °F
Feels Like 22 °F
N
6.0
Wind Variable Wind from WSW

Today
High -- | Low -- °F
--% Chance of Precip.
Yesterday
High -- | Low -- °F
Precip. -- in
Pressure 29.73 in
Visibility 10.0 miles
Clouds Mostly Cloudy 2000 ft
Mostly Cloudy 2700 ft
Overcast 3400 ft
Windchill 22 °F
Dew Point 25 °F
Humidity 86%
Rainfall 0.00 in
Snow Depth Not available.
5:54 AM 8:16 PM
Waxing Crescent, 6% visible
METAR KELO 281233Z AUTO 26010G14KT 10SM BKN020 BKN027 OVC034 M03/M06 A2973 RMK AO2
Pressure 29.73 in
Visibility 10.0 miles
Clouds Mostly Cloudy 2000 ft
Mostly Cloudy 2700 ft
Overcast 3400 ft
Windchill 22 °F
Dew Point 25 °F
Humidity 86%
Rainfall 0.00 in
Snow Depth Not available.
5:54 AM 8:16 PM
Waxing Crescent, 6% visible
METAR KELO 281233Z AUTO 26010G14KT 10SM BKN020 BKN027 OVC034 M03/M06 A2973 RMK AO2

Get Severe Weather Alerts

Thanks for signing up!

Be on the lookout for a verification email in your inbox.

You'll start receiving the daily forecast at 8 AM.

×

10-Day Weather Forecast

Almanac

Astronomy

Apr. 28, 2017 Rise Set
Actual Time
Civil Twilight
Nautical Twilight
Astronomical Twilight
Moon
Length of Visible Light
Length of Day
Tomorrow will be .
, % of the Moon is Illuminated

Today's Extremes

State Highs State Lows

Community

WunderPhotos

WunderBlog® & News

Nearby

Air Quality

  Air Quality AQ Index Pollutant
Not available.

Snow Depth

Station Depth Elevation

Earthquake Activity

City Distance Mag. Time & Date
Minimum magnitude displayed is 2.5.

Coastal Water Temperatures

Place Temperature

Stations

Nearby Weather Stations

Station Location Temp. Windchill Dew Point Humidity Wind Precip. Elev Updated Type
                   

Watches & Warnings

There are currently no watches in effect.